Time;durP1;ratioP1;P1;durP2;ratioP2;P2;SDS_P1;SDS_P2;PMS_P1;PMS_P2;Temp;Humidity;BMP_temperature;BMP_pressure;BME280_temperature;BME280_humidity;BME280_pressure;Samples;Min_cycle;Max_cycle;Signal;HPM_P1;HPM_P2
2022/03/15 00:00:36;;;;;;;8.37;6.70;;;11.70;53.90;;;-142.21;87.80;112049.66;6040538;23;20449;-79
2022/03/15 00:03:03;;;;;;;8.33;6.57;;;11.80;53.40;;;-142.21;87.36;112049.66;6039522;23;20976;-79
2022/03/15 00:05:31;;;;;;;9.17;6.83;;;11.80;53.30;;;-142.21;87.42;112049.66;6040614;23;20418;-79
2022/03/15 00:07:59;;;;;;;9.33;6.73;;;11.80;53.30;;;-142.21;87.21;112049.66;6039189;23;20450;-79
2022/03/15 00:10:29;;;;;;;11.40;7.60;;;11.80;53.30;;;-142.21;87.77;112049.66;6040439;23;20422;-79
2022/03/15 00:12:56;;;;;;;10.13;6.67;;;11.80;53.60;;;-142.21;87.42;112049.66;6039838;23;20900;-80
2022/03/15 00:15:25;;;;;;;7.90;6.77;;;11.70;53.40;;;-142.21;87.84;112049.66;6040448;23;20418;-78
2022/03/15 00:17:53;;;;;;;10.33;6.87;;;11.70;53.40;;;-142.21;87.78;112049.66;6040133;23;20458;-79
2022/03/15 00:20:23;;;;;;;9.60;6.80;;;11.70;53.60;;;-142.21;87.30;112049.66;6039492;23;20955;-79
2022/03/15 00:22:55;;;;;;;8.77;6.50;;;11.70;53.60;;;-142.21;86.89;112049.66;6040257;23;20427;-79
2022/03/15 00:25:23;;;;;;;10.37;7.27;;;11.60;53.80;;;-142.21;88.05;112049.66;6039786;23;20402;-78
2022/03/15 00:27:52;;;;;;;8.33;7.03;;;11.60;53.50;;;-142.21;88.01;112049.66;6039840;23;20537;-78
2022/03/15 00:30:21;;;;;;;8.20;6.63;;;11.60;54.40;;;-142.21;88.31;112049.66;6039878;23;20489;-78
2022/03/15 00:32:50;;;;;;;9.27;6.80;;;11.60;54.00;;;-142.21;87.98;112049.66;6039916;23;21026;-79
2022/03/15 00:35:19;;;;;;;7.07;6.27;;;11.60;53.90;;;-142.21;87.82;112049.66;6039255;23;20415;-79
2022/03/15 00:37:47;;;;;;;6.30;5.43;;;11.60;53.90;;;-142.21;88.39;112049.66;6039822;23;20903;-79
2022/03/15 00:40:15;;;;;;;9.03;5.90;;;11.60;53.90;;;-142.21;88.27;112049.66;6014947;23;20518;-79
2022/03/15 00:42:50;;;;;;;9.23;5.63;;;11.50;53.70;;;-142.21;89.30;112049.66;6039759;23;20410;-79
2022/03/15 00:45:22;;;;;;;8.37;5.33;;;11.50;53.90;;;-142.21;89.25;112049.66;6039360;23;20437;-79
2022/03/15 00:47:50;;;;;;;5.97;4.80;;;11.50;53.90;;;-142.21;89.51;112049.66;6040335;23;20817;-79
2022/03/15 00:50:18;;;;;;;5.90;4.43;;;11.50;54.20;;;-142.21;89.57;112049.66;6039350;23;21131;-80
2022/03/15 00:52:46;;;;;;;5.33;4.60;;;11.50;54.20;;;-142.21;89.41;112049.66;6039230;23;20435;-79
2022/03/15 00:55:13;;;;;;;6.03;4.50;;;11.50;54.10;;;-142.21;89.37;112049.66;6040187;23;20421;-79
2022/03/15 00:57:41;;;;;;;6.30;4.53;;;11.50;54.10;;;-142.21;89.47;112049.66;6038869;23;20431;-79
2022/03/15 01:00:11;;;;;;;7.20;4.53;;;11.40;54.00;;;-142.21;88.94;112049.66;6039821;23;20442;-80
2022/03/15 01:02:40;;;;;;;6.53;4.37;;;11.40;54.00;;;-142.21;89.59;112049.66;6038997;23;20402;-79
2022/03/15 01:05:09;;;;;;;5.80;4.57;;;11.40;54.10;;;-142.21;89.68;112049.66;6040109;23;20415;-78
2022/03/15 01:07:37;;;;;;;6.83;4.37;;;11.40;54.10;;;-142.21;90.10;112049.66;6039630;23;20422;-78
2022/03/15 01:10:06;;;;;;;5.40;3.87;;;11.40;53.90;;;-142.21;89.90;112049.66;6039507;23;20907;-78
2022/03/15 01:12:34;;;;;;;4.80;3.93;;;11.50;54.10;;;-142.21;90.20;112049.66;6039723;23;20479;-78
2022/03/15 01:15:01;;;;;;;6.33;4.20;;;11.50;54.00;;;-142.21;89.43;112049.66;6039132;23;20422;-77
2022/03/15 01:17:29;;;;;;;4.90;4.00;;;11.50;54.20;;;-142.21;89.59;112049.66;6039608;23;20497;-79
2022/03/15 01:19:57;;;;;;;6.43;4.67;;;11.40;54.10;;;-142.21;89.38;112049.66;6039235;23;20438;-80
2022/03/15 01:22:28;;;;;;;5.50;4.37;;;11.50;54.50;;;-142.21;90.32;112049.66;6040443;23;20461;-79
2022/03/15 01:24:56;;;;;;;7.10;4.73;;;11.40;54.60;;;-142.21;90.37;112049.66;6039224;23;20414;-80
2022/03/15 01:27:23;;;;;;;5.33;4.23;;;11.50;54.50;;;-142.21;90.87;112049.66;6039762;23;20562;-80
2022/03/15 01:29:50;;;;;;;6.07;4.37;;;11.50;54.20;;;-142.21;90.73;112049.66;6039440;23;20450;-80
2022/03/15 01:32:19;;;;;;;6.50;4.10;;;11.50;54.20;;;-142.21;90.55;112049.66;6039391;23;20437;-79
2022/03/15 01:34:46;;;;;;;6.97;4.10;;;11.50;54.30;;;-142.21;90.67;112049.66;6039824;23;20410;-80
2022/03/15 01:37:15;;;;;;;4.57;3.60;;;11.50;54.10;;;-142.21;89.93;112049.66;6038844;23;20493;-79
2022/03/15 01:39:42;;;;;;;4.80;3.97;;;11.60;55.00;;;-142.21;90.38;112049.66;6039141;23;20407;-79
2022/03/15 01:42:09;;;;;;;4.20;3.67;;;11.50;54.50;;;-142.21;90.60;112049.66;6038698;23;20414;-79
2022/03/15 01:44:37;;;;;;;6.03;3.90;;;11.50;54.50;;;-142.21;90.77;112049.66;6039966;23;20489;-80
2022/03/15 01:47:05;;;;;;;4.73;3.90;;;11.60;54.70;;;-142.21;90.19;112049.66;6038657;23;20761;-79
2022/03/15 01:49:36;;;;;;;5.00;3.97;;;11.60;54.70;;;-142.21;90.07;112049.66;6039100;23;20991;-79
2022/03/15 01:52:03;;;;;;;6.43;4.70;;;11.60;54.60;;;-142.21;89.49;112049.66;6039784;23;20394;-79
2022/03/15 01:54:32;;;;;;;5.03;4.33;;;11.60;54.70;;;-142.21;89.22;112049.66;6038422;23;20418;-79
2022/03/15 01:56:59;;;;;;;6.27;4.20;;;11.60;54.70;;;-142.21;89.96;112049.66;6038898;23;20995;-79
2022/03/15 01:59:26;;;;;;;7.30;4.77;;;11.60;54.50;;;-142.21;90.07;112049.66;6038887;23;20486;-79
2022/03/15 02:01:54;;;;;;;6.00;4.57;;;11.60;54.60;;;-142.21;89.76;112049.66;6038950;23;20490;-80
2022/03/15 02:04:21;;;;;;;5.53;4.00;;;11.70;54.70;;;-142.21;90.16;112049.66;6039093;23;20411;-80
2022/03/15 02:06:50;;;;;;;5.93;4.43;;;11.70;54.70;;;-142.21;89.95;112049.66;6039571;23;20471;-79
2022/03/15 02:09:17;;;;;;;6.17;4.50;;;11.60;54.50;;;-142.21;90.14;112049.66;6039084;23;20487;-79
2022/03/15 02:11:46;;;;;;;5.43;4.07;;;11.60;54.40;;;-142.21;90.45;112049.66;6038317;23;20414;-79
2022/03/15 02:14:13;;;;;;;6.20;4.23;;;11.60;54.50;;;-142.21;89.93;112049.66;6040413;23;20475;-79
2022/03/15 02:16:40;;;;;;;5.50;4.30;;;11.60;54.60;;;-142.21;89.89;112049.66;6038367;23;20453;-79
2022/03/15 02:19:08;;;;;;;6.07;4.43;;;11.60;54.60;;;-142.21;91.04;112049.66;6039033;23;20494;-80
2022/03/15 02:21:37;;;;;;;5.17;4.30;;;11.60;54.60;;;-142.21;89.87;112049.66;6038443;23;20474;-79
2022/03/15 02:24:06;;;;;;;6.17;4.20;;;11.60;54.60;;;-142.21;90.38;112049.66;6038871;23;20415;-79
2022/03/15 02:26:33;;;;;;;6.13;3.90;;;11.60;54.70;;;-142.21;90.43;112049.66;6038985;23;20419;-79
2022/03/15 02:29:01;;;;;;;5.30;4.27;;;11.70;54.70;;;-142.21;89.92;112049.66;6038647;23;20793;-79
2022/03/15 02:31:28;;;;;;;6.60;4.43;;;11.70;54.70;;;-142.21;89.93;112049.66;6039380;23;20451;-77
2022/03/15 02:33:55;;;;;;;6.90;4.27;;;11.80;54.80;;;-142.21;89.71;112049.66;6038742;23;20442;-79
2022/03/15 02:36:22;;;;;;;6.87;4.37;;;11.80;54.50;;;-142.21;89.60;112049.66;6039050;23;20434;-80
2022/03/15 02:38:51;;;;;;;5.43;4.13;;;11.80;54.50;;;-142.21;89.42;112049.66;6038017;23;20443;-80
2022/03/15 02:41:18;;;;;;;6.00;3.90;;;11.90;54.50;;;-142.21;89.08;112049.66;6039312;23;20973;-80
2022/03/15 02:43:46;;;;;;;7.27;4.03;;;11.90;54.40;;;-142.21;89.24;112049.66;6039004;23;20455;-79
2022/03/15 02:46:13;;;;;;;7.80;3.87;;;11.90;54.60;;;-142.21;89.34;112049.66;6038706;23;20498;-80
2022/03/15 02:48:41;;;;;;;5.70;4.23;;;11.80;54.50;;;-142.21;89.62;112049.66;6047358;23;20449;-77
2022/03/15 02:51:10;;;;;;;6.47;4.53;;;11.80;54.70;;;-142.21;89.61;112049.66;6049961;23;20438;-79
2022/03/15 02:53:38;;;;;;;4.97;3.70;;;11.80;54.50;;;-142.21;89.39;112049.66;6038629;23;20407;-77
2022/03/15 02:56:11;;;;;;;4.60;3.73;;;11.80;54.60;;;-142.21;90.16;112049.66;6038255;23;20434;-78
2022/03/15 02:58:39;;;;;;;6.07;4.07;;;11.90;55.00;;;-142.21;89.94;112049.66;6038817;23;20395;-78
2022/03/15 03:01:07;;;;;;;9.03;4.30;;;11.90;54.90;;;-142.21;90.04;112049.66;6038336;23;20478;-79
2022/03/15 03:03:34;;;;;;;6.30;4.07;;;11.80;54.90;;;-142.21;90.47;112049.66;6038768;23;20411;-79
2022/03/15 03:06:02;;;;;;;4.50;3.97;;;11.80;54.80;;;-142.21;90.59;112049.66;6038092;23;20407;-79
2022/03/15 03:08:30;;;;;;;5.97;4.57;;;11.70;54.70;;;-142.21;90.24;112049.66;6038767;23;20505;-80
2022/03/15 03:10:58;;;;;;;6.00;4.30;;;11.70;54.70;;;-142.21;90.62;112049.66;6038902;23;20434;-80
2022/03/15 03:13:27;;;;;;;5.73;4.30;;;11.70;54.70;;;-142.21;89.58;112049.66;6037979;23;20439;-80
2022/03/15 03:15:57;;;;;;;5.10;4.60;;;11.70;54.80;;;-142.21;90.31;112049.66;6027274;23;20449;-80
2022/03/15 03:18:28;;;;;;;6.33;4.30;;;11.80;54.70;;;-142.21;90.04;112049.66;6038548;23;20792;-80
2022/03/15 03:20:56;;;;;;;7.00;4.63;;;11.80;54.80;;;-142.21;89.50;112049.66;6039094;23;20399;-79
2022/03/15 03:23:23;;;;;;;5.87;3.80;;;11.90;54.60;;;-142.21;89.82;112049.66;6038017;23;20406;-79
2022/03/15 03:25:51;;;;;;;4.37;3.67;;;11.80;54.50;;;-142.21;90.43;112049.66;6038765;23;20474;-79
2022/03/15 03:28:19;;;;;;;5.33;3.93;;;11.90;54.80;;;-142.21;90.37;112049.66;6038858;23;20794;-79
2022/03/15 03:30:48;;;;;;;6.47;4.27;;;11.90;54.70;;;-142.21;89.73;112049.66;6038857;23;20466;-79
2022/03/15 03:33:19;;;;;;;5.60;4.17;;;11.90;54.70;;;-142.21;89.47;112049.66;6038919;23;20799;-79
2022/03/15 03:35:49;;;;;;;6.03;3.87;;;11.80;54.60;;;-142.21;90.85;112049.66;6038215;23;20401;-79
2022/03/15 03:38:20;;;;;;;5.30;4.17;;;11.80;54.60;;;-142.21;90.17;112049.66;6038938;23;20406;-79
2022/03/15 03:40:48;;;;;;;7.80;4.20;;;11.90;55.40;;;-142.21;89.79;112049.66;6038447;23;20427;-79
2022/03/15 03:43:15;;;;;;;4.57;4.10;;;11.80;54.50;;;-142.21;90.23;112049.66;6038800;23;20410;-77
2022/03/15 03:45:42;;;;;;;6.37;4.10;;;11.80;54.70;;;-142.21;89.25;112049.66;6038341;23;20498;-79
2022/03/15 03:48:12;;;;;;;5.30;4.23;;;11.80;54.80;;;-142.21;88.99;112049.66;6038506;23;20410;-76
2022/03/15 03:50:40;;;;;;;7.43;4.23;;;11.70;54.50;;;-142.21;89.74;112049.66;6038267;23;20458;-77
2022/03/15 03:53:08;;;;;;;5.70;4.10;;;11.80;54.50;;;-142.21;90.18;112049.66;6038460;23;20453;-77
2022/03/15 03:55:36;;;;;;;6.27;3.90;;;11.70;55.00;;;-142.21;90.24;112049.66;6038841;23;20410;-79
2022/03/15 03:58:04;;;;;;;4.77;3.90;;;11.80;54.80;;;-142.21;89.82;112049.66;6037708;23;20410;-79
2022/03/15 04:00:31;;;;;;;5.53;4.27;;;11.80;54.60;;;-142.21;90.08;112049.66;6038340;23;20433;-78
2022/03/15 04:03:00;;;;;;;5.10;4.20;;;11.80;54.80;;;-142.21;91.35;112049.66;6037797;23;20442;-79
2022/03/15 04:05:30;;;;;;;5.17;4.03;;;11.70;54.70;;;-142.21;91.17;112049.66;6038878;23;20415;-79
2022/03/15 04:07:59;;;;;;;6.23;3.97;;;11.70;55.00;;;-142.21;91.32;112049.66;6037653;23;20399;-77
2022/03/15 04:10:30;;;;;;;7.33;4.47;;;11.70;54.90;;;-142.21;90.72;112049.66;6038412;23;20537;-79
2022/03/15 04:12:57;;;;;;;5.47;4.20;;;11.60;54.70;;;-142.21;91.38;112049.66;6038629;23;20403;-78
2022/03/15 04:15:25;;;;;;;6.00;4.60;;;11.70;55.30;;;-142.21;91.42;112049.66;6038675;23;20475;-79
2022/03/15 04:17:52;;;;;;;5.07;4.37;;;11.70;54.80;;;-142.21;91.32;112049.66;6038681;23;20410;-79
2022/03/15 04:20:19;;;;;;;5.93;4.37;;;11.60;55.10;;;-142.21;90.44;112049.66;6037629;23;20406;-79
2022/03/15 04:22:48;;;;;;;5.07;3.60;;;11.60;55.20;;;-142.21;90.65;112049.66;6038327;23;20791;-79
2022/03/15 04:25:16;;;;;;;5.60;4.27;;;11.60;55.10;;;-142.21;90.38;112049.66;6038866;23;20492;-76
2022/03/15 04:27:43;;;;;;;4.83;4.07;;;11.50;55.00;;;-142.21;90.42;112049.66;6040325;23;20414;-79
2022/03/15 04:30:12;;;;;;;5.97;4.30;;;11.60;55.00;;;-142.21;89.92;112049.66;6040368;23;20457;-79
2022/03/15 04:32:39;;;;;;;6.17;4.20;;;11.60;55.10;;;-142.21;91.12;112049.66;6039891;23;20453;-77
2022/03/15 04:35:07;;;;;;;5.97;4.40;;;11.60;55.30;;;-142.21;91.29;112049.66;6039918;23;20414;-79
2022/03/15 04:37:35;;;;;;;5.40;4.20;;;11.60;55.30;;;-142.21;90.30;112049.66;6039429;23;20453;-78
2022/03/15 04:40:07;;;;;;;5.37;3.90;;;11.60;55.10;;;-142.21;90.83;112049.66;6039917;23;20500;-79
2022/03/15 04:42:34;;;;;;;7.00;4.17;;;11.60;55.40;;;-142.21;91.10;112049.66;6039656;23;20741;-77
2022/03/15 04:45:01;;;;;;;6.07;4.57;;;11.50;55.30;;;-142.21;89.91;112049.66;6040360;23;20410;-79
2022/03/15 04:47:29;;;;;;;6.67;4.10;;;11.50;55.20;;;-142.21;90.87;112049.66;6039317;23;20522;-79
2022/03/15 04:49:57;;;;;;;6.70;4.07;;;11.50;55.20;;;-142.21;91.45;112049.66;6039819;23;20783;-79
2022/03/15 04:52:24;;;;;;;5.43;4.27;;;11.50;55.20;;;-142.21;92.04;112049.66;6040290;23;20410;-79
2022/03/15 04:54:51;;;;;;;6.43;4.70;;;11.50;55.50;;;-142.21;92.13;112049.66;6039196;23;20441;-79
2022/03/15 04:57:20;;;;;;;6.73;4.63;;;11.50;55.50;;;-142.21;92.66;112049.66;6040068;23;20453;-79
2022/03/15 04:59:47;;;;;;;5.93;4.47;;;11.50;55.70;;;-142.21;91.33;112049.66;6039379;23;20410;-78
2022/03/15 05:02:14;;;;;;;7.97;4.20;;;11.40;55.60;;;-142.21;91.58;112049.66;6040104;23;20449;-75
2022/03/15 05:04:41;;;;;;;5.73;4.27;;;11.30;56.00;;;-142.21;90.67;112049.66;6066094;23;20403;-78
2022/03/15 05:07:09;;;;;;;5.23;3.57;;;11.20;56.00;;;-142.21;91.93;112049.66;6066741;23;20425;-79
2022/03/15 05:11:05;;;;;;;7.60;4.40;;;11.30;56.00;;;-142.21;92.72;112049.66;6066455;23;20461;-79
2022/03/15 05:12:26;;;;;;;6.73;4.23;;;11.40;56.00;;;-142.21;92.36;112049.66;6066068;23;20402;-78
2022/03/15 05:14:53;;;;;;;6.80;4.53;;;11.30;55.80;;;-142.21;92.83;112049.66;6065840;23;20395;-78
2022/03/15 05:17:21;;;;;;;6.70;4.80;;;11.40;56.00;;;-142.21;92.13;112049.66;6066007;23;20415;-79
2022/03/15 05:19:48;;;;;;;5.83;4.57;;;11.40;55.60;;;-142.21;91.77;112049.66;6056398;23;20410;-79
2022/03/15 05:22:16;;;;;;;5.37;4.30;;;11.40;55.90;;;-142.21;91.58;112049.66;6042614;23;20442;-79
2022/03/15 05:24:44;;;;;;;5.40;4.33;;;11.30;55.80;;;-142.21;90.96;112049.66;6039456;23;20529;-80
2022/03/15 05:27:11;;;;;;;4.10;3.70;;;11.40;55.80;;;-142.21;92.34;112049.66;6038884;23;20414;-79
2022/03/15 05:29:40;;;;;;;4.43;3.97;;;11.30;55.90;;;-142.21;91.37;112049.66;6039585;23;20530;-79
2022/03/15 05:32:08;;;;;;;6.57;4.10;;;11.40;55.90;;;-142.21;92.87;112049.66;6038837;23;20426;-80
2022/03/15 05:34:35;;;;;;;4.83;4.03;;;11.40;56.00;;;-142.21;92.50;112049.66;6039374;23;20884;-79
2022/03/15 05:37:04;;;;;;;7.17;4.57;;;11.40;55.80;;;-142.21;92.18;112049.66;6039796;23;20475;-77
2022/03/15 05:39:32;;;;;;;4.83;4.17;;;11.30;55.90;;;-142.21;91.97;112049.66;6039518;23;20414;-80
2022/03/15 05:41:59;;;;;;;6.43;4.77;;;11.30;55.70;;;-142.21;91.78;112049.66;6039427;23;20414;-79
2022/03/15 05:44:27;;;;;;;6.70;4.47;;;11.20;55.60;;;-142.21;92.24;112049.66;6038731;23;20497;-80
2022/03/15 05:46:56;;;;;;;4.77;4.23;;;11.20;55.70;;;-142.21;92.53;112049.66;6039310;23;20497;-79
2022/03/15 05:49:23;;;;;;;5.10;3.80;;;11.20;55.70;;;-142.21;92.63;112049.66;6038409;23;20455;-79
2022/03/15 05:51:50;;;;;;;5.50;4.50;;;11.20;55.90;;;-142.21;92.70;112049.66;6039768;23;20430;-78
2022/03/15 05:54:17;;;;;;;5.43;4.10;;;11.10;55.80;;;-142.21;93.63;112049.66;6039212;23;20505;-79
2022/03/15 05:56:45;;;;;;;5.90;4.50;;;11.20;55.40;;;-142.21;95.48;112049.66;6039597;23;20406;-79
2022/03/15 05:59:13;;;;;;;6.63;5.93;;;10.90;55.40;;;-142.21;97.73;112049.66;6039191;23;20794;-79
2022/03/15 06:01:40;;;;;;;7.80;6.47;;;11.00;55.70;;;-142.21;97.76;112049.66;6038817;23;20738;-80
2022/03/15 06:04:10;;;;;;;11.50;8.30;;;10.90;56.20;;;-142.21;97.36;112049.66;6039487;23;20458;-80
2022/03/15 06:06:38;;;;;;;9.93;8.10;;;10.90;56.50;;;-142.21;97.60;112049.66;6038929;23;20450;-80
2022/03/15 06:09:05;;;;;;;10.90;9.03;;;11.00;56.60;;;-142.21;96.47;112049.66;6039250;23;20444;-80
2022/03/15 06:11:35;;;;;;;10.33;7.93;;;11.00;56.90;;;-142.21;97.85;112049.66;6039158;23;20876;-80
2022/03/15 06:14:02;;;;;;;9.57;7.23;;;11.00;56.70;;;-142.21;97.68;112049.66;6039311;23;20414;-79
2022/03/15 06:16:29;;;;;;;8.43;6.43;;;11.00;56.70;;;-142.21;97.32;112049.66;6039324;23;20442;-79
2022/03/15 06:18:56;;;;;;;11.03;7.30;;;11.10;56.40;;;-142.21;97.04;112049.66;6038851;23;20418;-80
2022/03/15 06:21:25;;;;;;;6.57;4.50;;;11.10;56.50;;;-142.21;97.16;112049.66;6039452;23;20410;-80
2022/03/15 06:23:52;;;;;;;7.37;5.50;;;11.00;56.90;;;-142.21;96.15;112049.66;6038234;23;20493;-80
2022/03/15 06:26:20;;;;;;;8.53;4.70;;;11.10;57.50;;;-142.21;96.18;112049.66;6039397;23;20442;-79
2022/03/15 06:28:48;;;;;;;5.67;4.63;;;11.10;57.30;;;-142.21;95.88;112049.66;6038100;23;20946;-80
2022/03/15 06:31:15;;;;;;;6.07;4.70;;;11.10;57.40;;;-142.21;96.13;112049.66;6039123;23;20453;-80
2022/03/15 06:33:43;;;;;;;7.20;5.03;;;11.10;57.10;;;-142.21;95.63;112049.66;6038587;23;20417;-80
2022/03/15 06:36:11;;;;;;;5.70;4.50;;;11.10;57.30;;;-142.21;96.29;112049.66;6039121;23;20410;-80
2022/03/15 06:38:41;;;;;;;7.17;4.63;;;11.10;57.30;;;-142.21;95.69;112049.66;6038705;23;20497;-80
2022/03/15 06:41:11;;;;;;;6.33;4.73;;;11.00;57.50;;;-142.21;95.60;112049.66;6038515;23;20410;-79
2022/03/15 06:43:40;;;;;;;5.27;4.77;;;11.10;57.60;;;-142.21;95.78;112049.66;6039322;23;20395;-79
2022/03/15 06:46:08;;;;;;;6.83;5.23;;;11.10;57.30;;;-142.21;95.79;112049.66;6038103;23;20445;-80
2022/03/15 06:48:35;;;;;;;6.40;5.23;;;11.00;57.80;;;-142.21;95.86;112049.66;6038985;23;20410;-79
2022/03/15 06:51:03;;;;;;;5.40;4.80;;;11.10;57.80;;;-142.21;96.02;112049.66;6037900;23;20545;-79
2022/03/15 06:53:31;;;;;;;7.97;5.20;;;11.20;57.80;;;-142.21;95.31;112049.66;6038895;23;20415;-79
2022/03/15 06:55:59;;;;;;;6.23;4.83;;;11.20;57.40;;;-142.21;96.33;112049.66;6039090;23;20406;-78
2022/03/15 06:58:26;;;;;;;7.43;4.83;;;11.20;57.60;;;-142.21;96.12;112049.66;6038691;23;20414;-79
2022/03/15 07:00:55;;;;;;;4.80;4.33;;;11.30;57.40;;;-142.21;96.87;112049.66;6038659;23;20888;-79
2022/03/15 07:03:26;;;;;;;7.37;5.03;;;11.20;57.40;;;-142.21;96.88;112049.66;6014085;23;20425;-80
2022/03/15 07:05:54;;;;;;;9.80;5.37;;;11.40;57.40;;;-142.21;96.30;112049.66;6038924;23;20507;-78
2022/03/15 07:08:21;;;;;;;7.47;5.13;;;11.40;56.90;;;-142.21;96.29;112049.66;6038065;23;20494;-80
2022/03/15 07:10:48;;;;;;;5.10;4.60;;;11.50;57.40;;;-142.21;95.13;112049.66;6040987;23;20564;-74
2022/03/15 07:13:17;;;;;;;6.63;5.30;;;11.60;57.30;;;-142.21;95.21;112049.66;6040963;23;20490;-79
2022/03/15 07:15:44;;;;;;;6.97;5.83;;;11.60;56.80;;;-142.21;94.34;112049.66;6038777;23;20421;-79
2022/03/15 07:18:11;;;;;;;6.47;5.40;;;11.60;57.00;;;-142.21;94.14;112049.66;6037357;23;20453;-78
2022/03/15 07:20:39;;;;;;;5.67;4.87;;;11.60;57.00;;;-142.21;94.37;112049.66;6039095;23;20406;-78
2022/03/15 07:23:06;;;;;;;6.53;5.10;;;11.70;56.80;;;-142.21;93.82;112049.66;6038344;23;20470;-76
2022/03/15 07:25:33;;;;;;;7.83;5.07;;;11.80;56.90;;;-142.21;93.54;112049.66;6037956;23;20489;-76
2022/03/15 07:28:00;;;;;;;7.67;5.57;;;11.80;56.40;;;-142.21;93.42;112049.66;6039155;23;20398;-78
2022/03/15 07:30:29;;;;;;;9.33;6.50;;;11.90;56.40;;;-142.21;93.51;112049.66;6037914;23;20473;-79
2022/03/15 07:32:59;;;;;;;8.73;6.13;;;11.90;56.50;;;-142.21;93.28;112049.66;6038695;23;20410;-77
2022/03/15 07:35:27;;;;;;;7.93;5.47;;;12.00;56.50;;;-142.21;95.21;112049.66;6040224;23;20534;-73
2022/03/15 07:37:58;;;;;;;8.20;5.50;;;11.80;56.70;;;-142.21;96.01;112049.66;6038378;23;20564;-79
2022/03/15 07:40:27;;;;;;;5.53;4.50;;;11.80;57.20;;;-142.21;96.35;112049.66;6038207;23;20736;-75
2022/03/15 07:42:55;;;;;;;7.00;4.70;;;11.80;57.40;;;-142.21;96.06;112049.66;6039100;23;20414;-80
2022/03/15 07:45:23;;;;;;;7.60;5.30;;;11.80;57.30;;;-142.21;95.23;112049.66;6038994;23;20415;-76
2022/03/15 07:47:52;;;;;;;6.03;4.63;;;11.90;57.40;;;-142.21;95.57;112049.66;6040145;23;20434;-79
2022/03/15 07:50:20;;;;;;;8.07;5.83;;;11.90;57.30;;;-142.21;95.18;112049.66;6039165;23;20454;-77
2022/03/15 07:52:48;;;;;;;9.63;6.50;;;12.00;57.20;;;-142.21;95.39;112049.66;6038672;23;20497;-77
2022/03/15 07:55:16;;;;;;;9.27;6.20;;;12.00;57.20;;;-142.21;95.76;112049.66;6038017;23;20477;-75
2022/03/15 07:57:43;;;;;;;8.00;5.93;;;12.10;57.60;;;-142.21;95.07;112049.66;5964339;23;20477;-76
2022/03/15 08:00:11;;;;;;;8.77;5.33;;;12.10;57.20;;;-142.21;94.82;112049.66;6039808;23;20970;-78
2022/03/15 08:02:39;;;;;;;7.33;4.93;;;12.20;57.30;;;-142.21;95.25;112049.66;6039549;23;20410;-78
2022/03/15 08:05:09;;;;;;;7.07;4.83;;;12.30;57.30;;;-142.21;94.13;112049.66;6040465;23;20399;-76
2022/03/15 08:07:37;;;;;;;7.03;4.57;;;12.30;57.00;;;-142.21;94.37;112049.66;6040587;23;20450;-74
2022/03/15 08:10:07;;;;;;;8.37;5.00;;;12.30;56.90;;;-142.21;93.86;112049.66;6039676;23;20494;-76
2022/03/15 08:12:35;;;;;;;6.37;5.03;;;12.40;56.70;;;-142.21;93.95;112049.66;6040151;23;20429;-75
2022/03/15 08:15:02;;;;;;;8.67;5.00;;;12.40;56.70;;;-142.21;94.13;112049.66;6039404;23;20418;-79
2022/03/15 08:17:29;;;;;;;7.83;4.43;;;12.40;56.70;;;-142.21;92.99;112049.66;5991467;23;20479;-77
2022/03/15 08:19:58;;;;;;;4.43;4.03;;;12.40;56.60;;;-142.21;93.42;112049.66;6041052;23;20442;-80
2022/03/15 08:22:28;;;;;;;6.57;4.90;;;12.50;56.70;;;-142.21;92.75;112049.66;6039920;23;20422;-79
2022/03/15 08:24:56;;;;;;;6.13;5.03;;;12.60;56.50;;;-142.21;93.24;112049.66;6038954;23;20398;-78
2022/03/15 08:27:23;;;;;;;7.63;5.70;;;12.60;56.30;;;-142.21;94.03;112049.66;6039794;23;20398;-79
2022/03/15 08:29:51;;;;;;;6.23;5.17;;;12.80;56.50;;;-142.21;93.42;112049.66;6039916;23;20444;-78
2022/03/15 08:32:19;;;;;;;6.07;4.63;;;12.80;56.20;;;-142.21;92.68;112049.66;6040082;23;20414;-79
2022/03/15 08:34:46;;;;;;;6.17;4.17;;;12.80;56.00;;;-142.21;92.63;112049.66;6039761;23;20474;-78
2022/03/15 08:37:14;;;;;;;6.20;4.87;;;12.70;56.00;;;-142.21;92.63;112049.66;6039518;23;20402;-79
2022/03/15 08:39:43;;;;;;;7.70;5.17;;;12.70;56.00;;;-142.21;92.10;112049.66;6039616;23;20410;-79
2022/03/15 08:42:11;;;;;;;7.63;4.73;;;12.70;56.00;;;-142.21;92.46;112049.66;6039266;23;20434;-79
2022/03/15 08:44:39;;;;;;;8.40;5.20;;;12.70;56.10;;;-142.21;93.55;112049.66;6039316;23;20434;-79
2022/03/15 08:47:07;;;;;;;7.33;5.00;;;12.80;56.20;;;-142.21;95.31;112049.66;6039169;23;20445;-79
2022/03/15 08:49:35;;;;;;;7.90;5.27;;;12.90;56.40;;;-142.21;94.18;112049.66;6039482;23;20453;-78
2022/03/15 08:52:02;;;;;;;9.13;5.17;;;13.00;56.40;;;-142.21;94.04;112049.66;6038938;23;20989;-80
2022/03/15 08:54:31;;;;;;;7.77;5.07;;;13.00;55.90;;;-142.21;95.53;112049.66;6038775;23;20473;-79
2022/03/15 08:56:59;;;;;;;7.53;5.17;;;13.00;56.10;;;-142.21;94.68;112049.66;6039095;23;20486;-78
2022/03/15 08:59:26;;;;;;;13.40;5.77;;;13.10;56.20;;;-142.21;95.98;112049.66;6038370;23;20895;-78
2022/03/15 09:01:56;;;;;;;7.63;5.10;;;13.20;56.30;;;-142.21;94.59;112049.66;5990359;23;20706;-76
2022/03/15 09:04:25;;;;;;;8.10;5.20;;;13.20;56.00;;;-142.21;93.66;112049.66;6039494;23;20433;-78
2022/03/15 09:06:52;;;;;;;9.23;5.53;;;13.20;55.80;;;-142.21;93.71;112049.66;6039804;23;20501;-79
2022/03/15 09:09:22;;;;;;;8.30;5.23;;;13.10;55.90;;;-142.21;95.57;112049.66;6038789;23;20540;-78
2022/03/15 09:11:50;;;;;;;9.40;5.93;;;13.10;56.50;;;-142.21;94.12;112049.66;6040077;23;20458;-77
2022/03/15 09:14:19;;;;;;;8.53;5.27;;;13.10;56.50;;;-142.21;94.70;112049.66;6039861;23;20932;-79
2022/03/15 09:16:46;;;;;;;9.57;5.83;;;13.10;56.70;;;-142.21;96.63;112049.66;6039017;23;20420;-79
2022/03/15 09:19:14;;;;;;;8.73;5.47;;;13.10;57.10;;;-142.21;96.54;112049.66;6038878;23;20403;-79
2022/03/15 09:21:43;;;;;;;11.33;6.23;;;13.20;57.10;;;-142.21;96.98;112049.66;6038760;23;20406;-78
2022/03/15 09:24:11;;;;;;;7.60;5.80;;;13.10;57.40;;;-142.21;97.19;112049.66;6038719;23;20395;-79
2022/03/15 09:26:42;;;;;;;8.77;6.57;;;13.10;57.60;;;-142.21;96.76;112049.66;6038410;23;20418;-79
2022/03/15 09:29:10;;;;;;;7.97;5.70;;;13.10;57.40;;;-142.21;98.55;112049.66;6038740;23;20629;-79
2022/03/15 09:31:40;;;;;;;7.77;6.00;;;13.10;57.70;;;-142.21;97.36;112049.66;6037031;23;20454;-79
2022/03/15 09:34:07;;;;;;;8.90;5.77;;;13.20;57.60;;;-142.21;97.54;112049.66;6039486;23;20414;-79
2022/03/15 09:36:35;;;;;;;11.13;6.13;;;13.20;57.70;;;-142.21;97.72;112049.66;6038184;23;20418;-79
2022/03/15 09:39:07;;;;;;;8.30;5.80;;;13.30;57.70;;;-142.21;97.26;112049.66;6038973;23;20453;-79
2022/03/15 09:41:38;;;;;;;8.63;5.50;;;13.40;57.70;;;-142.21;96.01;112049.66;6039018;23;20418;-79
2022/03/15 09:44:09;;;;;;;7.57;5.53;;;13.40;57.50;;;-142.21;96.58;112049.66;6039193;23;20470;-79
2022/03/15 09:46:43;;;;;;;8.53;5.97;;;13.40;57.20;;;-142.21;98.02;112049.66;6037801;23;20482;-79
2022/03/15 09:49:11;;;;;;;8.97;6.07;;;13.40;57.60;;;-142.21;96.39;112049.66;6038644;23;20410;-79
2022/03/15 09:51:38;;;;;;;6.97;5.30;;;13.40;57.20;;;-142.21;95.90;112049.66;6037149;23;21028;-79
2022/03/15 09:54:07;;;;;;;9.23;6.00;;;13.30;57.40;;;-142.21;96.47;112049.66;6038996;23;20414;-79
2022/03/15 09:56:39;;;;;;;8.73;5.90;;;13.20;57.70;;;-142.21;95.01;112049.66;6038496;23;20457;-79
2022/03/15 09:59:12;;;;;;;8.00;6.10;;;13.20;57.50;;;-142.21;96.13;112049.66;6038980;23;20398;-77
2022/03/15 10:01:42;;;;;;;8.23;6.00;;;13.20;57.70;;;-142.21;96.64;112049.66;6037660;23;20414;-79
2022/03/15 10:04:10;;;;;;;8.57;6.07;;;13.20;58.00;;;-142.21;98.33;112049.66;6039213;23;20421;-79